AKDT,Max TemperatureF,Mean TemperatureF,Min TemperatureF,Max Dew PointF,MeanDew PointF,Min DewpointF,Max Humidity, Mean Humidity, Min Humidity, Max Sea Level PressureIn, Mean Sea Level PressureIn, Min Sea Level PressureIn, Max VisibilityMiles, Mean VisibilityMiles, Min VisibilityMiles, Max Wind SpeedMPH, Mean Wind SpeedMPH, Max Gust SpeedMPH,PrecipitationIn, CloudCover, Events, WindDirDegrees
2013-3-1,42,40,35,34,32,30,81,76,70,29.96,29.89,29.79,10,10,9,18,10,24,0.00,7,,131
2013-3-2,42,35,28,36,30,23,87,79,66,30.19,30.02,29.94,10,9,0,9,5,,0.00,5,,336
2013-3-3,41,34,28,32,28,23,87,79,65,30.48,30.37,30.20,10,10,10,8,1,,0.00,8,,306
2013-3-4,42,32,21,30,23,16,87,73,42,30.49,30.42,30.29,10,10,10,8,1,,0.00,1,,327
2013-3-5,37,27,17,25,19,10,86,70,48,30.29,30.11,29.98,10,10,10,7,1,,0.00,0,,285
2013-3-6,39,27,15,25,18,0,93,69,20,29.99,29.97,29.94,10,10,10,8,1,,0.00,0,,290
2013-3-7,41,29,17,28,23,14,100,77,56,30.06,30.02,29.99,10,10,10,6,1,,0.00,2,,337
2013-3-8,42,34,26,34,29,25,93,79,57,30.11,30.08,30.05,10,10,10,14,4,16,0.00,6,,138
2013-3-9,39,36,33,37,35,32,100,92,87,30.12,30.03,29.97,10,9,5,10,6,16,0.00,8,,147
2013-3-10,41,37,33,36,33,30,100,86,65,30.30,30.26,30.13,10,10,9,14,7,20,0.00,7,,142
2013-3-11,39,36,33,34,33,28,100,88,65,30.28,30.12,30.00,10,10,2,15,7,16,0.00,8,,123
2013-3-12,35,32,28,32,14,1,93,50,31,30.00,29.91,29.86,10,10,10,18,10,28,0.00,4,,349
2013-3-13,28,22,17,3,0,-2,53,35,27,30.01,29.94,29.87,10,10,10,15,10,21,0.00,1,,359
2013-3-14,33,22,10,12,6,1,86,51,28,30.01,29.94,29.87,10,10,10,13,4,16,0.00,1,,10
2013-3-15,28,26,24,27,21,7,100,80,40,29.99,29.91,29.86,10,6,1,7,4,,0.00,8,,333
2013-3-16,32,29,26,27,24,21,100,85,69,30.01,30.00,29.97,10,10,7,7,2,,0.00,8,,315
2013-3-17,30,22,14,28,21,7,100,79,40,30.07,30.03,30.00,10,9,2,6,1,,0.00,5,,192
2013-3-18,28,16,3,27,15,0,100,84,51,30.01,29.94,29.82,10,8,1,10,3,,0.00,5,,358
2013-3-19,33,28,23,27,24,16,100,84,60,29.81,29.69,29.63,10,8,2,14,8,16,0.00,8,,335
2013-3-20,30,20,10,16,6,0,93,55,29,29.79,29.66,29.61,10,10,10,13,5,18,0.00,0,,352
2013-3-21,30,19,8,12,9,3,92,61,40,30.32,30.06,29.80,10,10,10,13,3,16,0.00,1,,326
2013-3-22,33,20,6,25,18,3,100,80,56,30.37,30.34,30.29,10,10,2,10,2,,0.00,5,,341
2013-3-23,37,30,24,32,27,25,100,89,60,30.29,30.21,30.13,10,10,3,13,6,,0.00,7,,333
2013-3-24,37,34,32,36,33,30,100,95,87,30.13,30.00,29.82,10,9,4,12,8,,0.00,8,,328
2013-3-25,44,40,35,39,35,30,100,85,57,29.83,29.74,29.66,10,10,10,14,8,20,0.00,7,,154
2013-3-26,37,34,30,36,29,25,100,81,60,30.14,30.01,29.84,10,8,0,15,8,23,0.00,7,,181
2013-3-27,39,32,26,28,24,21,100,67,52,30.21,30.18,30.14,10,10,9,14,6,22,0.00,5,,223
2013-3-28,39,32,24,27,23,19,100,74,45,30.25,30.23,30.21,10,10,10,7,2,,0.00,4,,314
2013-3-29,41,36,30,34,29,25,100,81,61,30.31,30.28,30.25,10,10,7,17,3,24,0.00,8,,343
2013-3-30,44,40,37,39,36,32,100,87,71,30.38,30.28,30.20,10,9,0,18,13,25,0.00,8,,148
2013-3-31,44,38,33,37,34,32,100,87,66,30.38,30.25,30.06,10,8,0,6,1,,0.00,7,,313